Latest Coastal Weather Observations for Wyndham Airport

IDW60701

Issued at 8:25 am WST Thursday 27 November 2014 (issued every 10 minutes, with the page automatically refreshed every 10 minutes)

About coastal observations | Map of coastal stations | Coastal observations for WA | Marine services | Other Formats
Station Details ID: 001006 Name: WYNDHAM AERO Lat: -15.51 Lon: 128.15 Height: 3.8 m
Data from the previous 72 hours. | See also: Recent months for locations in Western Australia
Date/Time
WST
Temp

°C
Wind Pressure Rain
since 9am
mm
Weather Cloud Vis
km
Sea
Height
m
Swell
Dir
 
Speed
knots
Gust
knots
hPa Trend Height
m
Period
s
Dir
27/08:00am 30.7 SE 6 8 1010.0 - 0.4 - - - - - - -
27/07:30am 29.5 ESE 8 10 1009.8 - 0.4 - - - - - - -
27/07:00am 29.0 ESE 6 7 1009.5 - 0.4 - - - - - - -
27/06:30am 27.4 ESE 4 6 1009.3 - 0.4 - - - - - - -
27/06:00am 26.9 E 3 4 1008.9 - 0.4 - - - - - - -
27/05:30am 26.6 E 4 4 1008.6 - 0.4 - - - - - - -
27/05:00am 25.8 SE 5 5 1008.1 - 0.4 - - - - - - -
27/04:30am 26.0 E 4 5 1007.7 - 0.4 - - - - - - -
27/04:00am 26.1 ESE 8 8 1007.4 - 0.4 - - - - - - -
27/03:30am 26.5 ESE 9 10 1007.2 - 0.4 - - - - - - -
27/03:00am 26.5 CALM 0 0 1006.8 - 0.4 - - - - - - -
27/02:30am 26.8 CALM 0 0 1006.7 - 0.4 - - - - - - -
27/02:00am 27.1 CALM 0 0 1006.7 - 0.4 - - - - - - -
27/01:30am 27.2 CALM 0 0 1006.7 - 0.4 - - - - - - -
27/01:00am 27.5 CALM 0 0 1006.9 - 0.4 - - - - - - -
27/12:30am 27.5 CALM 0 0 1006.8 - 0.4 - - - - - - -
27/12:00am 27.3 CALM 0 0 1007.0 - 0.4 - - - - - - -
 
Date/Time
WST
Temp

°C
Wind Pressure Rain
since 9am
mm
Weather Cloud Vis
km
Sea
Height
m
Swell
Dir
 
Speed
knots
Gust
knots
hPa Trend Height
m
Period
s
Dir
26/11:30pm 26.6 NNE 4 5 1007.5 - 0.4 - - - - - - -
26/11:00pm 26.8 N 4 5 1007.4 - 0.4 - - - - - - -
26/10:30pm 27.1 CALM 0 1 1007.6 - 0.4 - - - - - - -
26/10:00pm 26.8 E 8 10 1008.0 - 0.4 - - - - - - -
26/09:30pm 27.5 E 8 10 1008.4 - 0.4 - - - - - - -
26/09:00pm 28.4 E 11 12 1008.6 - 0.4 Rain - - - - - -
26/08:30pm 30.9 N 7 10 1007.8 - 0.0 - - - - - - -
26/08:00pm 31.5 N 10 13 1007.2 - 0.0 - - - - - - -
26/07:30pm 31.6 N 9 13 1006.9 - 0.0 - - - - - - -
26/07:00pm 31.7 N 11 15 1006.7 - 0.0 - - - - - - -
26/06:30pm 32.0 N 9 11 1006.4 - 0.0 - - - - - - -
26/06:00pm 32.2 N 6 10 1005.8 - 0.0 - - - - - - -
26/05:30pm 32.7 NNW 7 9 1005.2 - 0.0 - - - - - - -
26/05:00pm 33.8 NW 6 9 1004.8 - 0.0 - - - - - - -
26/04:30pm 34.6 NNW 7 10 1004.6 - 0.0 - - - - - - -
26/04:00pm 35.1 NNW 11 14 1004.3 - 0.0 - - - - - - -
26/03:30pm 35.2 N 13 16 1004.4 - 0.0 - - - - - - -
26/03:00pm 36.2 NW 6 11 1004.4 - 0.0 - - - - - - -
26/02:30pm 36.5 NW 7 11 1004.8 - 0.0 - - - - - - -
26/02:00pm 36.1 WNW 11 15 1005.2 - 0.0 - - - - - - -
26/01:30pm 34.9 NW 10 13 1005.5 - 0.0 - - - - - - -
26/01:00pm 36.1 ENE 11 17 1005.7 - 0.0 - - - - - - -
26/12:30pm 35.2 E 10 14 1005.9 - 0.0 - - - - - - -
26/12:00pm 35.8 SE 11 19 1006.1 - 0.0 - - - - - - -
26/11:30am 34.4 SSE 7 11 1006.8 - 0.0 - - - - - - -
26/11:00am 33.7 SE 7 11 1007.2 - 0.0 - - - - - - -
26/10:30am 32.2 WSW 11 13 1007.8 - 0.0 - - - - - - -
26/10:00am 32.3 S 7 11 1008.1 - 0.0 - - - - - - -
26/09:30am 31.1 SE 7 9 1008.4 - 0.0 - - - - - - -
26/09:00am 30.1 E 8 11 1008.6 - 14.4 - - - - - - -
26/08:30am 27.8 ESE 7 10 1009.0 - 14.4 - - - - - - -
26/08:00am 26.3 SE 4 6 1009.4 - 14.4 - - - - - - -
26/07:30am 25.0 S 3 4 1009.4 - 14.4 - - - - - - -
26/07:00am 24.3 SW 6 8 1009.4 - 14.4 - - - - - - -
26/06:30am 23.9 SSW 4 6 1009.3 - 14.4 - - - - - - -
26/06:00am 23.6 SW 7 8 1009.3 - 14.4 Recent precip. - - - - - -
26/05:30am 23.4 NW 6 7 1009.0 - 14.4 - - - - - - -
26/05:00am 23.2 SSW 9 11 1009.5 - 14.2 - - - - - - -
26/04:30am 23.9 W 11 14 1009.4 - 13.6 - - - - - - -
26/04:00am 24.7 CALM 0 0 1009.0 - 13.6 - - - - - - -
26/03:30am 24.4 S 4 9 1008.7 - 13.4 - - - - - - -
26/03:00am 24.1 SSW 9 12 1008.7 - 12.6 Rain - - - - - -
26/02:30am 26.7 SSE 8 11 1008.2 - 11.8 - - - - - - -
26/02:00am 26.6 SE 9 10 1007.6 - 11.8 - - - - - - -
26/01:30am 26.8 CALM 0 0 1006.8 - 11.8 - - - - - - -
26/01:00am 27.0 E 10 14 1007.0 - 11.8 - - - - - - -
26/12:30am 28.0 NE 13 17 1006.6 - 11.8 - - - - - - -
26/12:00am 27.9 NE 15 22 1006.9 - 11.8 - - - - - - -
 
Date/Time
WST
Temp

°C
Wind Pressure Rain
since 9am
mm
Weather Cloud Vis
km
Sea
Height
m
Swell
Dir
 
Speed
knots
Gust
knots
hPa Trend Height
m
Period
s
Dir
25/11:30pm 28.3 E 15 23 1007.9 - 11.8 - - - - - - -
25/11:00pm 27.4 E 13 16 1008.3 - 11.8 - - - - - - -
25/10:51pm 27.5 E 15 20 1008.2 - 11.8 - - - - - - -
25/10:30pm 27.1 E 8 9 1006.8 - 11.8 - - - - - - -
25/10:00pm 26.6 ESE 7 9 1006.8 - 11.8 - - - - - - -
25/09:30pm 26.5 SE 7 8 1007.0 - 11.8 - - - - - - -
25/09:00pm 26.4 ESE 7 10 1006.8 - 11.8 - - - - - - -
25/08:30pm 26.8 E 6 7 1006.7 - 11.8 - - - - - - -
25/08:00pm 26.6 ESE 5 6 1006.1 - 11.8 - - - - - - -
25/07:30pm 26.8 ENE 4 5 1005.9 - 11.8 - - - - - - -
25/07:00pm 27.0 S 5 6 1006.0 - 11.8 - - - - - - -
25/06:30pm 27.3 CALM 0 0 1005.9 - 11.8 - - - - - - -
25/06:00pm 27.1 CALM 0 0 1005.4 - 11.8 - - - - - - -
25/05:30pm 27.1 WNW 3 5 1005.1 - 11.8 - - - - - - -
25/05:00pm 26.6 WSW 7 10 1004.9 - 11.8 - - - - - - -
25/04:30pm 27.2 WSW 8 9 1005.0 - 11.6 - - - - - - -
25/04:00pm 27.9 NNW 8 10 1005.4 - 11.2 - - - - - - -
25/03:30pm 26.0 N 8 10 1005.8 - 11.2 - - - - - - -
25/03:00pm 25.0 W 9 12 1006.3 - 11.2 Rain - - - - - -
25/02:39pm 23.7 WSW 24 34 1006.7 - 10.0 - - - - - - -
25/02:30pm 23.8 SW 23 32 1007.8 - 6.0 - - - - - - -
25/02:29pm 24.0 SSW 23 27 1007.8 - 5.0 - - - - - - -
25/02:19pm 25.8 S 24 39 1006.5 - 0.2 - - - - - - -
25/02:10pm 31.5 SSE 25 38 1006.3 - 0.0 - - - - - - -
25/02:09pm 31.5 SE 28 38 1006.1 - 0.0 - - - - - - -
25/02:04pm 32.6 SE 29 34 1005.7 - 0.0 - - - - - - -
25/02:01pm 35.7 SSE 17 29 1005.6 - 0.0 - - - - - - -
25/02:00pm 36.3 SSW 7 14 1005.3 - 0.0 - - - - - - -
25/01:30pm 36.3 ENE 12 17 1005.3 - 0.0 - - - - - - -
25/01:00pm 36.9 S 10 14 1005.7 - 0.0 - - - - - - -
25/12:30pm 38.7 W 7 11 1005.7 - 0.0 - - - - - - -
25/12:00pm 38.1 WNW 6 10 1006.2 - 0.0 - - - - - - -
25/11:30am 37.0 W 4 7 1006.7 - 0.0 - - - - - - -
25/11:00am 35.8 ESE 5 8 1007.5 - 0.0 - - - - - - -
25/10:30am 35.2 ESE 4 8 1008.3 - 0.0 - - - - - - -
25/10:00am 34.0 SE 4 7 1008.9 - 0.0 - - - - - - -
25/09:30am 33.1 NNW 4 6 1009.3 - 0.0 - - - - - - -
25/09:00am 32.5 WNW 5 8 1009.3 - 0.2 - - - - - - -
25/08:30am 32.3 W 5 6 1009.4 - 0.2 - - - - - - -
25/08:00am 32.4 NNW 5 6 1009.3 - 0.2 - - - - - - -
25/07:30am 32.4 NW 6 8 1008.9 - 0.2 - - - - - - -
25/07:00am 31.4 WNW 7 9 1008.5 - 0.0 - - - - - - -
25/06:30am 30.9 W 7 9 1008.5 - 0.0 - - - - - - -
25/06:00am 29.9 NE 1 4 1008.5 - 0.0 - - - - - - -
25/05:30am 29.2 ESE 3 5 1008.1 - 0.0 - - - - - - -
25/05:00am 29.0 E 5 6 1007.5 - 0.0 - - - - - - -
25/04:30am 29.0 ESE 6 8 1006.9 - 0.0 - - - - - - -
25/04:00am 29.0 E 4 5 1006.6 - 0.0 - - - - - - -
25/03:30am 28.9 ESE 1 4 1006.2 - 0.0 - - - - - - -
25/03:00am 28.5 E 4 5 1006.4 - 0.0 - - - - - - -
25/02:30am 28.9 ESE 5 7 1006.6 - 0.0 - - - - - - -
25/02:00am 28.8 ESE 6 8 1006.5 - 0.0 - - - - - - -
25/01:30am 29.2 ESE 6 9 1006.7 - 0.0 - - - - - - -
25/01:00am 30.4 CALM 0 3 1007.1 - 0.0 - - - - - - -
25/12:30am 30.7 NNE 4 5 1007.2 - 0.0 - - - - - - -
25/12:00am 30.6 N 11 15 1006.8 - 0.0 - - - - - - -
 
Date/Time
WST
Temp

°C
Wind Pressure Rain
since 9am
mm
Weather Cloud Vis
km
Sea
Height
m
Swell
Dir
 
Speed
knots
Gust
knots
hPa Trend Height
m
Period
s
Dir
24/11:30pm 30.7 N 9 11 1007.6 - 0.0 - - - - - - -
24/11:00pm 30.7 N 8 12 1008.2 - 0.0 - - - - - - -
24/10:30pm 30.6 NE 8 10 1008.8 - 0.0 - - - - - - -
24/10:00pm 29.8 ENE 10 13 1009.4 - 0.0 - - - - - - -
24/09:30pm 29.4 SE 12 15 1010.1 - 0.0 - - - - - - -
24/09:00pm 30.3 NE 7 10 1009.5 - 0.0 - - - - - - -
24/08:30pm 30.4 NE 7 10 1009.3 - 0.0 - - - - - - -
24/08:00pm 30.6 E 15 23 1009.2 - 0.0 - - - - - - -
24/07:59pm 30.7 E 16 23 1009.1 - 0.0 - - - - - - -
24/07:51pm 31.3 SE 21 27 1008.6 - 0.0 - - - - - - -
24/07:30pm 31.7 NNE 7 12 1007.2 - 0.0 - - - - - - -
24/07:00pm 31.6 NNW 9 11 1007.1 - 0.0 - - - - - - -
24/06:30pm 31.5 NNE 11 15 1007.1 - 0.0 - - - - - - -
24/06:00pm 32.0 NE 13 19 1006.9 - 0.0 - - - - - - -
24/05:57pm 32.0 NE 16 26 1006.7 - 0.0 - - - - - - -
24/05:30pm 32.4 ENE 16 22 1006.6 - 0.0 - - - - - - -
24/05:00pm 34.0 N 19 26 1005.2 - 0.0 - - - - - - -
24/04:30pm 35.4 NNE 15 22 1004.9 - 0.0 - - - - - - -
24/04:15pm 36.6 NNE 15 20 1004.4 - 0.0 - - - - - - -
24/04:00pm 41.2 W 6 9 1004.3 - 0.0 - - - - - - -
24/03:30pm 40.9 SW 6 11 1004.2 - 0.0 - - - - - - -
24/03:00pm 41.4 SSW 6 12 1004.1 - 0.0 - - - - - - -
24/02:30pm 41.8 SW 8 13 1004.1 - 0.0 - - - - - - -
24/02:00pm 40.9 SSW 6 9 1004.4 - 0.0 - - - - - - -
24/01:30pm 40.9 SW 8 11 1004.9 - 0.0 - - - - - - -
24/01:00pm 40.9 S 8 15 1005.6 - 0.0 - - - - - - -
24/12:30pm 39.8 SW 10 15 1006.3 - 0.0 - - - - - - -
24/12:00pm 40.8 W 5 11 1006.9 - 0.0 - - - - - - -
24/11:30am 39.3 WSW 7 11 1007.8 - 0.0 - - - - - - -
24/11:00am 39.8 SSE 10 14 1008.5 - 0.0 - - - - - - -
24/10:30am 38.4 S 9 16 1009.0 - 0.0 - - - - - - -
24/10:00am 38.4 SSW 12 15 1009.4 - 0.0 - - - - - - -
24/09:30am 37.4 W 11 15 1009.7 - 0.0 - - - - - - -
24/09:00am 37.1 WSW 9 14 1010.0 - 1.0 - - - - - - -
24/08:30am 36.2 W 10 12 1010.4 - 1.0 - - - - - - -

Other Formats:

Comma delimited format used in spreadsheet applications
http://www.bom.gov.au/fwo/IDW60701/IDW60701.95214.axf

JavaScript Object Notation format (JSON) in row-major order
http://www.bom.gov.au/fwo/IDW60701/IDW60701.95214.json